sensor_id;sensor_type;location;lat;lon;timestamp;P1;durP1;ratioP1;P2;durP2;ratioP2
56242;SDS011;42155;53.096;23.226;2024-02-15T00:00:49;60.95;;;26.20;;
56242;SDS011;42155;53.096;23.226;2024-02-15T00:02:51;57.95;;;24.58;;
56242;SDS011;42155;53.096;23.226;2024-02-15T00:04:52;54.35;;;23.48;;
56242;SDS011;42155;53.096;23.226;2024-02-15T00:06:52;51.85;;;22.27;;
56242;SDS011;42155;53.096;23.226;2024-02-15T00:08:53;47.30;;;20.17;;
56242;SDS011;42155;53.096;23.226;2024-02-15T00:10:53;45.42;;;20.50;;
56242;SDS011;42155;53.096;23.226;2024-02-15T00:12:53;45.55;;;19.25;;
56242;SDS011;42155;53.096;23.226;2024-02-15T00:14:54;41.20;;;17.98;;
56242;SDS011;42155;53.096;23.226;2024-02-15T00:16:54;43.15;;;18.27;;
56242;SDS011;42155;53.096;23.226;2024-02-15T00:18:55;40.25;;;17.30;;
56242;SDS011;42155;53.096;23.226;2024-02-15T00:20:56;35.97;;;15.75;;
56242;SDS011;42155;53.096;23.226;2024-02-15T00:22:56;37.00;;;17.27;;
56242;SDS011;42155;53.096;23.226;2024-02-15T00:24:56;44.55;;;19.02;;
56242;SDS011;42155;53.096;23.226;2024-02-15T00:26:57;42.15;;;16.83;;
56242;SDS011;42155;53.096;23.226;2024-02-15T00:28:57;41.55;;;17.52;;
56242;SDS011;42155;53.096;23.226;2024-02-15T00:30:58;50.42;;;19.83;;
56242;SDS011;42155;53.096;23.226;2024-02-15T00:32:58;53.65;;;20.27;;
56242;SDS011;42155;53.096;23.226;2024-02-15T00:34:58;50.10;;;21.02;;
56242;SDS011;42155;53.096;23.226;2024-02-15T00:36:59;46.47;;;20.50;;
56242;SDS011;42155;53.096;23.226;2024-02-15T00:38:59;53.10;;;21.15;;
56242;SDS011;42155;53.096;23.226;2024-02-15T00:41:00;47.95;;;21.10;;
56242;SDS011;42155;53.096;23.226;2024-02-15T00:43:00;54.67;;;22.42;;
56242;SDS011;42155;53.096;23.226;2024-02-15T00:45:01;56.78;;;21.60;;
56242;SDS011;42155;53.096;23.226;2024-02-15T00:47:01;56.75;;;22.15;;
56242;SDS011;42155;53.096;23.226;2024-02-15T00:49:02;51.05;;;20.70;;
56242;SDS011;42155;53.096;23.226;2024-02-15T00:51:03;51.42;;;21.05;;
56242;SDS011;42155;53.096;23.226;2024-02-15T00:53:03;53.90;;;21.08;;
56242;SDS011;42155;53.096;23.226;2024-02-15T00:55:04;53.78;;;22.48;;
56242;SDS011;42155;53.096;23.226;2024-02-15T00:57:04;56.53;;;22.83;;
56242;SDS011;42155;53.096;23.226;2024-02-15T00:59:05;60.42;;;23.30;;
56242;SDS011;42155;53.096;23.226;2024-02-15T01:01:05;52.47;;;21.48;;
56242;SDS011;42155;53.096;23.226;2024-02-15T01:03:06;53.88;;;20.55;;
56242;SDS011;42155;53.096;23.226;2024-02-15T01:05:06;61.22;;;20.75;;
56242;SDS011;42155;53.096;23.226;2024-02-15T01:07:07;64.43;;;22.10;;
56242;SDS011;42155;53.096;23.226;2024-02-15T01:09:07;55.58;;;19.65;;
56242;SDS011;42155;53.096;23.226;2024-02-15T01:11:09;42.15;;;15.88;;
56242;SDS011;42155;53.096;23.226;2024-02-15T01:13:09;33.00;;;13.77;;
56242;SDS011;42155;53.096;23.226;2024-02-15T01:15:10;35.95;;;15.30;;
56242;SDS011;42155;53.096;23.226;2024-02-15T01:17:10;26.55;;;12.25;;
56242;SDS011;42155;53.096;23.226;2024-02-15T01:19:11;32.00;;;12.00;;
56242;SDS011;42155;53.096;23.226;2024-02-15T01:21:12;26.55;;;12.23;;
56242;SDS011;42155;53.096;23.226;2024-02-15T01:23:12;31.52;;;12.73;;
56242;SDS011;42155;53.096;23.226;2024-02-15T01:25:13;28.63;;;12.07;;
56242;SDS011;42155;53.096;23.226;2024-02-15T01:27:13;27.63;;;12.10;;
56242;SDS011;42155;53.096;23.226;2024-02-15T01:29:14;26.33;;;11.85;;
56242;SDS011;42155;53.096;23.226;2024-02-15T01:31:14;31.13;;;12.50;;
56242;SDS011;42155;53.096;23.226;2024-02-15T01:33:14;24.95;;;12.23;;
56242;SDS011;42155;53.096;23.226;2024-02-15T01:35:15;28.35;;;12.30;;
56242;SDS011;42155;53.096;23.226;2024-02-15T01:37:15;34.15;;;13.00;;
56242;SDS011;42155;53.096;23.226;2024-02-15T01:39:16;30.85;;;13.18;;
56242;SDS011;42155;53.096;23.226;2024-02-15T01:41:16;28.75;;;13.05;;
56242;SDS011;42155;53.096;23.226;2024-02-15T01:43:16;29.98;;;14.60;;
56242;SDS011;42155;53.096;23.226;2024-02-15T01:45:17;28.92;;;13.70;;
56242;SDS011;42155;53.096;23.226;2024-02-15T01:47:17;30.20;;;13.80;;
56242;SDS011;42155;53.096;23.226;2024-02-15T01:49:18;29.90;;;14.02;;
56242;SDS011;42155;53.096;23.226;2024-02-15T01:51:19;31.65;;;13.13;;
56242;SDS011;42155;53.096;23.226;2024-02-15T01:53:20;27.75;;;13.05;;
56242;SDS011;42155;53.096;23.226;2024-02-15T01:55:20;30.73;;;12.40;;
56242;SDS011;42155;53.096;23.226;2024-02-15T01:57:22;33.63;;;12.48;;
56242;SDS011;42155;53.096;23.226;2024-02-15T01:59:23;31.77;;;14.35;;
56242;SDS011;42155;53.096;23.226;2024-02-15T02:01:25;36.38;;;14.23;;
56242;SDS011;42155;53.096;23.226;2024-02-15T02:03:26;38.85;;;14.02;;
56242;SDS011;42155;53.096;23.226;2024-02-15T02:05:27;33.38;;;13.98;;
56242;SDS011;42155;53.096;23.226;2024-02-15T02:07:32;29.38;;;12.65;;
56242;SDS011;42155;53.096;23.226;2024-02-15T02:09:33;31.48;;;12.80;;
56242;SDS011;42155;53.096;23.226;2024-02-15T02:11:33;30.50;;;12.30;;
56242;SDS011;42155;53.096;23.226;2024-02-15T02:13:35;32.72;;;12.68;;
56242;SDS011;42155;53.096;23.226;2024-02-15T02:15:36;31.63;;;13.25;;
56242;SDS011;42155;53.096;23.226;2024-02-15T02:17:37;30.92;;;12.88;;
56242;SDS011;42155;53.096;23.226;2024-02-15T02:19:37;28.45;;;12.82;;
56242;SDS011;42155;53.096;23.226;2024-02-15T02:21:38;26.17;;;12.27;;
56242;SDS011;42155;53.096;23.226;2024-02-15T02:23:39;25.98;;;12.10;;
56242;SDS011;42155;53.096;23.226;2024-02-15T02:25:40;28.52;;;13.27;;
56242;SDS011;42155;53.096;23.226;2024-02-15T02:27:41;23.88;;;12.98;;
56242;SDS011;42155;53.096;23.226;2024-02-15T02:29:44;25.05;;;12.85;;
56242;SDS011;42155;53.096;23.226;2024-02-15T02:31:44;28.88;;;12.98;;
56242;SDS011;42155;53.096;23.226;2024-02-15T02:33:49;28.30;;;13.68;;
56242;SDS011;42155;53.096;23.226;2024-02-15T02:35:52;23.10;;;12.52;;
56242;SDS011;42155;53.096;23.226;2024-02-15T02:37:53;28.98;;;13.05;;
56242;SDS011;42155;53.096;23.226;2024-02-15T02:39:53;33.05;;;13.88;;
56242;SDS011;42155;53.096;23.226;2024-02-15T02:41:54;27.90;;;13.43;;
56242;SDS011;42155;53.096;23.226;2024-02-15T02:43:58;29.25;;;13.25;;
56242;SDS011;42155;53.096;23.226;2024-02-15T02:45:58;27.92;;;13.00;;
56242;SDS011;42155;53.096;23.226;2024-02-15T02:47:59;26.40;;;12.80;;
56242;SDS011;42155;53.096;23.226;2024-02-15T02:49:59;31.30;;;13.70;;
56242;SDS011;42155;53.096;23.226;2024-02-15T02:51:59;29.10;;;13.07;;
56242;SDS011;42155;53.096;23.226;2024-02-15T02:54:00;23.98;;;12.15;;
56242;SDS011;42155;53.096;23.226;2024-02-15T02:56:00;33.63;;;14.38;;
56242;SDS011;42155;53.096;23.226;2024-02-15T02:58:00;30.83;;;13.20;;
56242;SDS011;42155;53.096;23.226;2024-02-15T03:00:01;38.60;;;13.65;;
56242;SDS011;42155;53.096;23.226;2024-02-15T03:02:02;31.58;;;13.85;;
56242;SDS011;42155;53.096;23.226;2024-02-15T03:04:03;28.85;;;13.98;;
56242;SDS011;42155;53.096;23.226;2024-02-15T03:06:03;30.92;;;13.85;;
56242;SDS011;42155;53.096;23.226;2024-02-15T03:08:04;27.83;;;13.68;;
56242;SDS011;42155;53.096;23.226;2024-02-15T03:10:05;29.92;;;13.07;;
56242;SDS011;42155;53.096;23.226;2024-02-15T03:12:06;33.03;;;13.73;;
56242;SDS011;42155;53.096;23.226;2024-02-15T03:14:07;33.17;;;13.75;;
56242;SDS011;42155;53.096;23.226;2024-02-15T03:16:07;25.98;;;13.50;;
56242;SDS011;42155;53.096;23.226;2024-02-15T03:18:08;25.98;;;13.32;;
56242;SDS011;42155;53.096;23.226;2024-02-15T03:20:09;29.30;;;13.40;;
56242;SDS011;42155;53.096;23.226;2024-02-15T03:22:10;26.33;;;13.00;;
56242;SDS011;42155;53.096;23.226;2024-02-15T03:24:10;29.42;;;13.48;;
56242;SDS011;42155;53.096;23.226;2024-02-15T03:26:11;24.95;;;12.65;;
56242;SDS011;42155;53.096;23.226;2024-02-15T03:28:11;25.13;;;12.75;;
56242;SDS011;42155;53.096;23.226;2024-02-15T03:30:11;28.00;;;13.15;;
56242;SDS011;42155;53.096;23.226;2024-02-15T03:32:12;25.48;;;14.07;;
56242;SDS011;42155;53.096;23.226;2024-02-15T03:34:13;31.63;;;13.43;;
56242;SDS011;42155;53.096;23.226;2024-02-15T03:36:13;36.72;;;12.60;;
56242;SDS011;42155;53.096;23.226;2024-02-15T03:38:14;29.35;;;12.43;;
56242;SDS011;42155;53.096;23.226;2024-02-15T03:40:14;26.67;;;13.23;;
56242;SDS011;42155;53.096;23.226;2024-02-15T03:42:15;26.52;;;13.25;;
56242;SDS011;42155;53.096;23.226;2024-02-15T03:44:15;34.78;;;14.30;;
56242;SDS011;42155;53.096;23.226;2024-02-15T03:46:16;26.95;;;12.88;;
56242;SDS011;42155;53.096;23.226;2024-02-15T03:48:16;25.52;;;11.77;;
56242;SDS011;42155;53.096;23.226;2024-02-15T03:50:17;26.80;;;12.25;;
56242;SDS011;42155;53.096;23.226;2024-02-15T03:52:17;29.20;;;12.85;;
56242;SDS011;42155;53.096;23.226;2024-02-15T03:54:18;26.65;;;12.02;;
56242;SDS011;42155;53.096;23.226;2024-02-15T03:56:19;27.90;;;12.18;;
56242;SDS011;42155;53.096;23.226;2024-02-15T03:58:19;23.67;;;12.23;;
56242;SDS011;42155;53.096;23.226;2024-02-15T04:00:19;25.35;;;11.90;;
56242;SDS011;42155;53.096;23.226;2024-02-15T04:02:20;26.58;;;12.00;;
56242;SDS011;42155;53.096;23.226;2024-02-15T04:04:21;28.25;;;12.35;;
56242;SDS011;42155;53.096;23.226;2024-02-15T04:06:21;31.08;;;11.88;;
56242;SDS011;42155;53.096;23.226;2024-02-15T04:08:22;26.88;;;12.43;;
56242;SDS011;42155;53.096;23.226;2024-02-15T04:10:22;26.00;;;12.38;;
56242;SDS011;42155;53.096;23.226;2024-02-15T04:12:23;24.42;;;11.73;;
56242;SDS011;42155;53.096;23.226;2024-02-15T04:14:23;25.80;;;11.13;;
56242;SDS011;42155;53.096;23.226;2024-02-15T04:16:24;21.55;;;11.60;;
56242;SDS011;42155;53.096;23.226;2024-02-15T04:18:24;22.73;;;10.63;;
56242;SDS011;42155;53.096;23.226;2024-02-15T04:20:24;21.33;;;11.15;;
56242;SDS011;42155;53.096;23.226;2024-02-15T04:22:25;23.85;;;11.15;;
56242;SDS011;42155;53.096;23.226;2024-02-15T04:24:26;21.50;;;10.88;;
56242;SDS011;42155;53.096;23.226;2024-02-15T04:26:26;19.17;;;9.68;;
56242;SDS011;42155;53.096;23.226;2024-02-15T04:28:27;22.55;;;10.68;;
56242;SDS011;42155;53.096;23.226;2024-02-15T04:30:28;21.52;;;10.93;;
56242;SDS011;42155;53.096;23.226;2024-02-15T04:32:28;21.40;;;10.88;;
56242;SDS011;42155;53.096;23.226;2024-02-15T04:34:29;25.45;;;10.73;;
56242;SDS011;42155;53.096;23.226;2024-02-15T04:36:29;23.17;;;10.75;;
56242;SDS011;42155;53.096;23.226;2024-02-15T04:38:30;21.23;;;11.45;;
56242;SDS011;42155;53.096;23.226;2024-02-15T04:40:30;23.67;;;11.32;;
56242;SDS011;42155;53.096;23.226;2024-02-15T04:42:31;20.55;;;10.05;;
56242;SDS011;42155;53.096;23.226;2024-02-15T04:44:31;22.30;;;11.00;;
56242;SDS011;42155;53.096;23.226;2024-02-15T04:46:32;28.70;;;12.48;;
56242;SDS011;42155;53.096;23.226;2024-02-15T04:48:32;30.70;;;12.75;;
56242;SDS011;42155;53.096;23.226;2024-02-15T04:50:32;28.60;;;12.50;;
56242;SDS011;42155;53.096;23.226;2024-02-15T04:52:33;26.88;;;11.77;;
56242;SDS011;42155;53.096;23.226;2024-02-15T04:54:34;20.20;;;10.68;;
56242;SDS011;42155;53.096;23.226;2024-02-15T04:56:34;23.02;;;10.50;;
56242;SDS011;42155;53.096;23.226;2024-02-15T04:58:35;24.52;;;10.48;;
56242;SDS011;42155;53.096;23.226;2024-02-15T05:00:35;23.65;;;11.40;;
56242;SDS011;42155;53.096;23.226;2024-02-15T05:02:39;21.17;;;10.48;;
56242;SDS011;42155;53.096;23.226;2024-02-15T05:04:40;21.48;;;10.88;;
56242;SDS011;42155;53.096;23.226;2024-02-15T05:06:40;24.33;;;10.65;;
56242;SDS011;42155;53.096;23.226;2024-02-15T05:08:40;22.45;;;10.23;;
56242;SDS011;42155;53.096;23.226;2024-02-15T05:10:41;19.25;;;10.45;;
56242;SDS011;42155;53.096;23.226;2024-02-15T05:12:42;23.20;;;11.15;;
56242;SDS011;42155;53.096;23.226;2024-02-15T05:14:42;23.27;;;11.48;;
56242;SDS011;42155;53.096;23.226;2024-02-15T05:16:42;24.45;;;12.38;;
56242;SDS011;42155;53.096;23.226;2024-02-15T05:18:43;24.05;;;11.80;;
56242;SDS011;42155;53.096;23.226;2024-02-15T05:20:43;23.13;;;11.60;;
56242;SDS011;42155;53.096;23.226;2024-02-15T05:22:43;27.10;;;11.77;;
56242;SDS011;42155;53.096;23.226;2024-02-15T05:24:44;21.17;;;10.85;;
56242;SDS011;42155;53.096;23.226;2024-02-15T05:26:45;26.20;;;11.45;;
56242;SDS011;42155;53.096;23.226;2024-02-15T05:28:46;23.90;;;11.98;;
56242;SDS011;42155;53.096;23.226;2024-02-15T05:30:46;27.48;;;12.07;;
56242;SDS011;42155;53.096;23.226;2024-02-15T05:32:46;23.00;;;11.02;;
56242;SDS011;42155;53.096;23.226;2024-02-15T05:34:47;28.25;;;11.55;;
56242;SDS011;42155;53.096;23.226;2024-02-15T05:36:47;27.20;;;11.75;;
56242;SDS011;42155;53.096;23.226;2024-02-15T05:38:49;25.70;;;11.75;;
56242;SDS011;42155;53.096;23.226;2024-02-15T05:40:53;20.17;;;11.18;;
56242;SDS011;42155;53.096;23.226;2024-02-15T05:42:56;23.52;;;11.43;;
56242;SDS011;42155;53.096;23.226;2024-02-15T05:45:14;26.77;;;12.20;;
56242;SDS011;42155;53.096;23.226;2024-02-15T05:47:23;24.33;;;12.23;;
56242;SDS011;42155;53.096;23.226;2024-02-15T05:49:23;24.17;;;13.15;;
56242;SDS011;42155;53.096;23.226;2024-02-15T05:51:23;26.30;;;12.18;;
56242;SDS011;42155;53.096;23.226;2024-02-15T05:53:24;23.13;;;11.27;;
56242;SDS011;42155;53.096;23.226;2024-02-15T05:55:24;23.30;;;12.07;;
56242;SDS011;42155;53.096;23.226;2024-02-15T05:57:25;21.27;;;10.63;;
56242;SDS011;42155;53.096;23.226;2024-02-15T05:59:25;24.67;;;11.32;;
56242;SDS011;42155;53.096;23.226;2024-02-15T06:01:26;29.38;;;12.65;;
56242;SDS011;42155;53.096;23.226;2024-02-15T06:03:29;28.40;;;13.80;;
56242;SDS011;42155;53.096;23.226;2024-02-15T06:05:30;41.63;;;17.17;;
56242;SDS011;42155;53.096;23.226;2024-02-15T06:07:30;30.42;;;14.32;;
56242;SDS011;42155;53.096;23.226;2024-02-15T06:09:31;32.35;;;14.00;;
56242;SDS011;42155;53.096;23.226;2024-02-15T06:11:31;24.88;;;12.52;;
56242;SDS011;42155;53.096;23.226;2024-02-15T06:13:32;23.65;;;12.98;;
56242;SDS011;42155;53.096;23.226;2024-02-15T06:15:33;29.55;;;14.15;;
56242;SDS011;42155;53.096;23.226;2024-02-15T06:17:33;29.60;;;13.00;;
56242;SDS011;42155;53.096;23.226;2024-02-15T06:19:33;24.83;;;12.43;;
56242;SDS011;42155;53.096;23.226;2024-02-15T06:21:34;23.75;;;12.93;;
56242;SDS011;42155;53.096;23.226;2024-02-15T06:23:34;26.10;;;11.90;;
56242;SDS011;42155;53.096;23.226;2024-02-15T06:25:35;24.35;;;12.00;;
56242;SDS011;42155;53.096;23.226;2024-02-15T06:27:36;25.30;;;12.52;;
56242;SDS011;42155;53.096;23.226;2024-02-15T06:29:37;21.80;;;12.20;;
56242;SDS011;42155;53.096;23.226;2024-02-15T06:31:38;23.48;;;10.70;;
56242;SDS011;42155;53.096;23.226;2024-02-15T06:33:38;23.55;;;10.18;;
56242;SDS011;42155;53.096;23.226;2024-02-15T06:35:39;23.65;;;10.90;;
56242;SDS011;42155;53.096;23.226;2024-02-15T06:37:39;24.88;;;11.30;;
56242;SDS011;42155;53.096;23.226;2024-02-15T06:39:40;24.63;;;11.38;;
56242;SDS011;42155;53.096;23.226;2024-02-15T06:41:40;24.48;;;11.15;;
56242;SDS011;42155;53.096;23.226;2024-02-15T06:43:41;23.02;;;11.18;;
56242;SDS011;42155;53.096;23.226;2024-02-15T06:45:41;21.48;;;10.98;;
56242;SDS011;42155;53.096;23.226;2024-02-15T06:47:42;22.90;;;10.70;;
56242;SDS011;42155;53.096;23.226;2024-02-15T06:49:43;27.63;;;11.60;;
56242;SDS011;42155;53.096;23.226;2024-02-15T06:51:49;27.58;;;11.88;;
56242;SDS011;42155;53.096;23.226;2024-02-15T06:53:49;30.23;;;13.57;;
56242;SDS011;42155;53.096;23.226;2024-02-15T06:55:50;34.25;;;14.27;;
56242;SDS011;42155;53.096;23.226;2024-02-15T06:57:50;27.55;;;11.93;;
56242;SDS011;42155;53.096;23.226;2024-02-15T06:59:51;26.42;;;12.77;;
56242;SDS011;42155;53.096;23.226;2024-02-15T07:01:51;25.17;;;11.77;;
56242;SDS011;42155;53.096;23.226;2024-02-15T07:03:52;21.75;;;10.13;;
56242;SDS011;42155;53.096;23.226;2024-02-15T07:05:52;26.52;;;11.18;;
56242;SDS011;42155;53.096;23.226;2024-02-15T07:07:54;24.75;;;10.70;;
56242;SDS011;42155;53.096;23.226;2024-02-15T07:09:54;20.25;;;9.27;;
56242;SDS011;42155;53.096;23.226;2024-02-15T07:11:56;24.48;;;8.95;;
56242;SDS011;42155;53.096;23.226;2024-02-15T07:14:00;18.17;;;8.10;;
56242;SDS011;42155;53.096;23.226;2024-02-15T07:16:07;21.17;;;8.73;;
56242;SDS011;42155;53.096;23.226;2024-02-15T07:18:08;21.92;;;9.48;;
56242;SDS011;42155;53.096;23.226;2024-02-15T07:20:12;20.17;;;9.18;;
56242;SDS011;42155;53.096;23.226;2024-02-15T07:22:13;17.08;;;9.30;;
56242;SDS011;42155;53.096;23.226;2024-02-15T07:24:13;20.20;;;10.27;;
56242;SDS011;42155;53.096;23.226;2024-02-15T07:26:13;18.63;;;8.75;;
56242;SDS011;42155;53.096;23.226;2024-02-15T07:28:14;18.77;;;8.02;;
56242;SDS011;42155;53.096;23.226;2024-02-15T07:30:15;17.85;;;7.22;;
56242;SDS011;42155;53.096;23.226;2024-02-15T07:32:15;14.32;;;6.22;;
56242;SDS011;42155;53.096;23.226;2024-02-15T07:34:16;13.60;;;7.13;;
56242;SDS011;42155;53.096;23.226;2024-02-15T07:36:20;13.90;;;6.35;;
56242;SDS011;42155;53.096;23.226;2024-02-15T07:38:21;14.00;;;6.13;;
56242;SDS011;42155;53.096;23.226;2024-02-15T07:40:22;14.27;;;6.63;;
56242;SDS011;42155;53.096;23.226;2024-02-15T07:42:22;14.35;;;5.97;;
56242;SDS011;42155;53.096;23.226;2024-02-15T07:44:23;16.02;;;7.47;;
56242;SDS011;42155;53.096;23.226;2024-02-15T07:46:23;13.70;;;7.25;;
56242;SDS011;42155;53.096;23.226;2024-02-15T07:48:24;17.48;;;6.88;;
56242;SDS011;42155;53.096;23.226;2024-02-15T07:50:24;12.55;;;6.43;;
56242;SDS011;42155;53.096;23.226;2024-02-15T07:52:24;11.38;;;6.05;;
56242;SDS011;42155;53.096;23.226;2024-02-15T07:54:25;12.80;;;6.30;;
56242;SDS011;42155;53.096;23.226;2024-02-15T07:56:26;14.77;;;6.80;;
56242;SDS011;42155;53.096;23.226;2024-02-15T07:58:27;14.15;;;6.47;;
56242;SDS011;42155;53.096;23.226;2024-02-15T08:00:28;18.60;;;7.60;;
56242;SDS011;42155;53.096;23.226;2024-02-15T08:02:28;14.88;;;7.03;;
56242;SDS011;42155;53.096;23.226;2024-02-15T08:04:29;16.05;;;6.57;;
56242;SDS011;42155;53.096;23.226;2024-02-15T08:06:29;11.95;;;6.00;;
56242;SDS011;42155;53.096;23.226;2024-02-15T08:08:30;11.55;;;5.65;;
56242;SDS011;42155;53.096;23.226;2024-02-15T08:10:30;16.15;;;6.38;;
56242;SDS011;42155;53.096;23.226;2024-02-15T08:12:31;13.48;;;6.00;;
56242;SDS011;42155;53.096;23.226;2024-02-15T08:14:31;14.80;;;5.72;;
56242;SDS011;42155;53.096;23.226;2024-02-15T08:16:32;10.70;;;5.38;;
56242;SDS011;42155;53.096;23.226;2024-02-15T08:18:34;10.43;;;5.35;;
56242;SDS011;42155;53.096;23.226;2024-02-15T08:20:34;13.48;;;5.90;;
56242;SDS011;42155;53.096;23.226;2024-02-15T08:22:35;11.43;;;5.22;;
56242;SDS011;42155;53.096;23.226;2024-02-15T08:24:36;16.20;;;6.20;;
56242;SDS011;42155;53.096;23.226;2024-02-15T08:26:36;15.25;;;6.30;;
56242;SDS011;42155;53.096;23.226;2024-02-15T08:28:38;15.60;;;5.97;;
56242;SDS011;42155;53.096;23.226;2024-02-15T08:30:39;12.68;;;5.90;;
56242;SDS011;42155;53.096;23.226;2024-02-15T08:32:41;13.52;;;6.10;;
56242;SDS011;42155;53.096;23.226;2024-02-15T08:34:42;13.50;;;6.43;;
56242;SDS011;42155;53.096;23.226;2024-02-15T08:36:42;17.65;;;7.13;;
56242;SDS011;42155;53.096;23.226;2024-02-15T08:38:42;15.63;;;7.05;;
56242;SDS011;42155;53.096;23.226;2024-02-15T08:40:43;12.15;;;6.15;;
56242;SDS011;42155;53.096;23.226;2024-02-15T08:42:44;12.93;;;5.68;;
56242;SDS011;42155;53.096;23.226;2024-02-15T08:44:44;12.88;;;6.35;;
56242;SDS011;42155;53.096;23.226;2024-02-15T08:46:45;10.95;;;5.20;;
56242;SDS011;42155;53.096;23.226;2024-02-15T08:48:45;12.43;;;5.07;;
56242;SDS011;42155;53.096;23.226;2024-02-15T08:50:46;12.75;;;5.95;;
56242;SDS011;42155;53.096;23.226;2024-02-15T08:52:46;14.88;;;5.95;;
56242;SDS011;42155;53.096;23.226;2024-02-15T08:54:47;18.27;;;5.80;;
56242;SDS011;42155;53.096;23.226;2024-02-15T08:56:47;17.05;;;5.68;;
56242;SDS011;42155;53.096;23.226;2024-02-15T08:58:48;12.98;;;5.35;;
56242;SDS011;42155;53.096;23.226;2024-02-15T09:00:49;15.55;;;6.57;;
56242;SDS011;42155;53.096;23.226;2024-02-15T09:02:49;12.82;;;5.43;;
56242;SDS011;42155;53.096;23.226;2024-02-15T09:04:50;15.82;;;5.63;;
56242;SDS011;42155;53.096;23.226;2024-02-15T09:06:51;12.70;;;4.80;;
56242;SDS011;42155;53.096;23.226;2024-02-15T09:08:51;15.05;;;4.80;;
56242;SDS011;42155;53.096;23.226;2024-02-15T09:10:52;12.23;;;5.10;;
56242;SDS011;42155;53.096;23.226;2024-02-15T09:12:53;13.38;;;5.68;;
56242;SDS011;42155;53.096;23.226;2024-02-15T09:14:53;14.30;;;4.60;;
56242;SDS011;42155;53.096;23.226;2024-02-15T09:16:54;10.35;;;4.88;;
56242;SDS011;42155;53.096;23.226;2024-02-15T09:18:54;12.57;;;5.05;;
56242;SDS011;42155;53.096;23.226;2024-02-15T09:20:55;9.13;;;4.88;;
56242;SDS011;42155;53.096;23.226;2024-02-15T09:22:56;10.45;;;4.72;;
56242;SDS011;42155;53.096;23.226;2024-02-15T09:24:56;8.75;;;3.78;;
56242;SDS011;42155;53.096;23.226;2024-02-15T09:26:57;14.50;;;4.38;;
56242;SDS011;42155;53.096;23.226;2024-02-15T09:28:58;12.00;;;4.25;;
56242;SDS011;42155;53.096;23.226;2024-02-15T09:30:58;11.02;;;4.65;;
56242;SDS011;42155;53.096;23.226;2024-02-15T09:32:58;9.13;;;4.00;;
56242;SDS011;42155;53.096;23.226;2024-02-15T09:34:59;10.15;;;4.22;;
56242;SDS011;42155;53.096;23.226;2024-02-15T09:36:59;9.25;;;4.80;;
56242;SDS011;42155;53.096;23.226;2024-02-15T09:39:00;9.23;;;3.92;;
56242;SDS011;42155;53.096;23.226;2024-02-15T09:41:00;11.68;;;4.32;;
56242;SDS011;42155;53.096;23.226;2024-02-15T09:43:02;8.70;;;3.63;;
56242;SDS011;42155;53.096;23.226;2024-02-15T09:45:03;7.60;;;3.70;;
56242;SDS011;42155;53.096;23.226;2024-02-15T09:47:04;7.00;;;3.15;;
56242;SDS011;42155;53.096;23.226;2024-02-15T09:49:06;8.10;;;3.80;;
56242;SDS011;42155;53.096;23.226;2024-02-15T09:51:07;9.48;;;4.57;;
56242;SDS011;42155;53.096;23.226;2024-02-15T09:53:07;8.85;;;4.43;;
56242;SDS011;42155;53.096;23.226;2024-02-15T09:55:09;5.85;;;3.40;;
56242;SDS011;42155;53.096;23.226;2024-02-15T09:57:11;7.63;;;3.88;;
56242;SDS011;42155;53.096;23.226;2024-02-15T09:59:12;7.90;;;3.85;;
56242;SDS011;42155;53.096;23.226;2024-02-15T10:01:12;11.88;;;4.60;;
56242;SDS011;42155;53.096;23.226;2024-02-15T10:03:16;8.05;;;3.80;;
56242;SDS011;42155;53.096;23.226;2024-02-15T10:05:19;7.75;;;3.58;;
56242;SDS011;42155;53.096;23.226;2024-02-15T10:07:19;10.43;;;3.78;;
56242;SDS011;42155;53.096;23.226;2024-02-15T10:09:26;6.72;;;3.17;;
56242;SDS011;42155;53.096;23.226;2024-02-15T10:11:27;7.30;;;3.40;;
56242;SDS011;42155;53.096;23.226;2024-02-15T10:13:28;10.18;;;3.83;;
56242;SDS011;42155;53.096;23.226;2024-02-15T10:17:32;5.55;;;3.30;;
56242;SDS011;42155;53.096;23.226;2024-02-15T10:19:32;8.98;;;4.28;;
56242;SDS011;42155;53.096;23.226;2024-02-15T10:21:33;9.27;;;3.63;;
56242;SDS011;42155;53.096;23.226;2024-02-15T10:23:33;10.15;;;4.03;;
56242;SDS011;42155;53.096;23.226;2024-02-15T10:25:35;7.38;;;3.35;;
56242;SDS011;42155;53.096;23.226;2024-02-15T10:27:36;9.45;;;3.33;;
56242;SDS011;42155;53.096;23.226;2024-02-15T10:29:36;8.70;;;3.40;;
56242;SDS011;42155;53.096;23.226;2024-02-15T10:31:38;11.55;;;4.18;;
56242;SDS011;42155;53.096;23.226;2024-02-15T10:33:39;9.70;;;3.97;;
56242;SDS011;42155;53.096;23.226;2024-02-15T10:35:41;7.53;;;3.97;;
56242;SDS011;42155;53.096;23.226;2024-02-15T10:37:41;9.35;;;3.88;;
56242;SDS011;42155;53.096;23.226;2024-02-15T10:39:41;7.28;;;3.83;;
56242;SDS011;42155;53.096;23.226;2024-02-15T10:41:46;9.63;;;4.07;;
56242;SDS011;42155;53.096;23.226;2024-02-15T10:43:47;10.48;;;4.50;;
56242;SDS011;42155;53.096;23.226;2024-02-15T10:45:48;10.43;;;4.25;;
56242;SDS011;42155;53.096;23.226;2024-02-15T10:47:49;11.43;;;4.95;;
56242;SDS011;42155;53.096;23.226;2024-02-15T10:49:49;13.38;;;4.75;;
56242;SDS011;42155;53.096;23.226;2024-02-15T10:51:56;14.55;;;6.68;;
56242;SDS011;42155;53.096;23.226;2024-02-15T10:53:59;9.85;;;4.68;;
56242;SDS011;42155;53.096;23.226;2024-02-15T10:58:09;7.32;;;3.88;;
56242;SDS011;42155;53.096;23.226;2024-02-15T11:00:16;8.10;;;3.60;;
56242;SDS011;42155;53.096;23.226;2024-02-15T11:04:35;6.53;;;2.97;;
56242;SDS011;42155;53.096;23.226;2024-02-15T11:06:37;7.80;;;3.38;;
56242;SDS011;42155;53.096;23.226;2024-02-15T11:08:39;9.30;;;3.80;;
56242;SDS011;42155;53.096;23.226;2024-02-15T11:10:42;9.27;;;3.58;;
56242;SDS011;42155;53.096;23.226;2024-02-15T11:12:43;9.35;;;3.95;;
56242;SDS011;42155;53.096;23.226;2024-02-15T11:14:44;12.13;;;4.90;;
56242;SDS011;42155;53.096;23.226;2024-02-15T11:16:45;10.88;;;4.50;;
56242;SDS011;42155;53.096;23.226;2024-02-15T11:18:46;11.05;;;4.25;;
56242;SDS011;42155;53.096;23.226;2024-02-15T11:20:48;9.93;;;4.45;;
56242;SDS011;42155;53.096;23.226;2024-02-15T11:22:55;11.25;;;5.25;;
56242;SDS011;42155;53.096;23.226;2024-02-15T11:24:56;9.98;;;4.47;;
56242;SDS011;42155;53.096;23.226;2024-02-15T11:27:00;12.93;;;4.78;;
56242;SDS011;42155;53.096;23.226;2024-02-15T11:29:00;11.70;;;5.07;;
56242;SDS011;42155;53.096;23.226;2024-02-15T11:31:01;12.45;;;4.45;;
56242;SDS011;42155;53.096;23.226;2024-02-15T11:33:09;11.45;;;3.92;;
56242;SDS011;42155;53.096;23.226;2024-02-15T11:35:25;7.72;;;3.60;;
56242;SDS011;42155;53.096;23.226;2024-02-15T11:39:48;7.38;;;3.72;;
56242;SDS011;42155;53.096;23.226;2024-02-15T11:44:25;9.27;;;3.05;;
56242;SDS011;42155;53.096;23.226;2024-02-15T11:46:25;10.25;;;3.40;;
56242;SDS011;42155;53.096;23.226;2024-02-15T11:48:27;4.65;;;2.65;;
56242;SDS011;42155;53.096;23.226;2024-02-15T11:50:27;11.63;;;3.28;;
56242;SDS011;42155;53.096;23.226;2024-02-15T11:52:33;6.00;;;3.17;;
56242;SDS011;42155;53.096;23.226;2024-02-15T11:54:33;7.13;;;3.03;;